createdAt,value
2023-03-29T00:00:47.680Z,80.02
2023-03-29T00:03:14.384Z,78.88
2023-03-29T00:05:40.971Z,78.65
2023-03-29T00:08:07.826Z,78.01
2023-03-29T00:10:34.362Z,80.07
2023-03-29T00:13:01.005Z,79.70
2023-03-29T00:15:27.405Z,80.36
2023-03-29T00:17:53.894Z,80.21
2023-03-29T00:20:20.366Z,81.38
2023-03-29T00:22:46.869Z,82.88
2023-03-29T00:25:13.546Z,82.79
2023-03-29T00:27:40.075Z,83.78
2023-03-29T00:30:06.937Z,82.00
2023-03-29T00:32:33.584Z,82.49
2023-03-29T00:35:00.039Z,82.20
2023-03-29T00:37:26.859Z,82.36
2023-03-29T00:39:53.304Z,81.60
2023-03-29T00:42:19.713Z,81.31
2023-03-29T00:44:53.770Z,82.07
2023-03-29T00:47:21.032Z,82.08
2023-03-29T00:49:47.521Z,82.19
2023-03-29T00:52:14.171Z,81.47
2023-03-29T00:54:40.723Z,80.54
2023-03-29T00:57:07.186Z,80.87
2023-03-29T00:59:33.757Z,79.30
2023-03-29T01:02:01.021Z,78.99
2023-03-29T01:04:44.884Z,76.18
2023-03-29T01:07:30.257Z,73.45
2023-03-29T01:10:01.140Z,72.10
2023-03-29T01:12:32.759Z,71.45
2023-03-29T01:15:03.724Z,71.82
2023-03-29T01:17:30.182Z,72.55
2023-03-29T01:20:01.500Z,72.10
2023-03-29T01:22:33.022Z,72.01
2023-03-29T01:25:06.791Z,72.36
2023-03-29T01:27:33.364Z,72.21
2023-03-29T01:30:03.693Z,71.69
2023-03-29T01:32:33.956Z,72.64
2023-03-29T01:35:20.723Z,73.84
2023-03-29T01:37:55.326Z,74.65
2023-03-29T01:40:21.846Z,74.32
2023-03-29T01:42:57.042Z,73.89
2023-03-29T01:45:42.273Z,73.88
2023-03-29T01:48:14.984Z,73.59
2023-03-29T01:50:42.446Z,73.12
2023-03-29T01:53:10.708Z,72.34
2023-03-29T01:55:40.446Z,71.73
2023-03-29T01:58:06.978Z,71.53
2023-03-29T02:00:33.378Z,71.79
2023-03-29T02:03:01.090Z,71.28
2023-03-29T02:05:28.504Z,71.65
2023-03-29T02:07:55.012Z,72.17
2023-03-29T02:10:21.738Z,72.77
2023-03-29T02:12:48.188Z,72.85
2023-03-29T02:15:15.674Z,74.28
2023-03-29T02:17:42.389Z,73.82
2023-03-29T02:20:08.880Z,73.47
2023-03-29T02:22:37.245Z,72.99
2023-03-29T02:25:03.896Z,73.41
2023-03-29T02:27:30.369Z,73.91
2023-03-29T02:29:56.815Z,73.75
2023-03-29T02:32:31.834Z,73.95
2023-03-29T02:34:59.122Z,73.29
2023-03-29T02:37:25.629Z,74.35
2023-03-29T02:39:52.173Z,75.27
2023-03-29T02:42:18.564Z,75.30
2023-03-29T02:44:45.033Z,76.87
2023-03-29T02:47:19.823Z,76.69
2023-03-29T02:49:46.351Z,78.25
2023-03-29T02:52:14.395Z,78.80
2023-03-29T02:54:40.981Z,80.20
2023-03-29T02:57:07.538Z,81.66
2023-03-29T02:59:34.182Z,81.78
2023-03-29T03:02:00.996Z,83.88
2023-03-29T03:04:27.524Z,83.77
2023-03-29T03:06:53.992Z,83.93
2023-03-29T03:09:20.489Z,85.49
2023-03-29T03:11:47.029Z,86.89
2023-03-29T03:14:13.406Z,88.41
2023-03-29T03:16:39.894Z,89.20
2023-03-29T03:19:06.597Z,90.10
2023-03-29T03:21:33.140Z,92.20
2023-03-29T03:23:59.811Z,93.47
2023-03-29T03:26:26.315Z,92.54
2023-03-29T03:28:52.762Z,92.06
2023-03-29T03:31:19.255Z,91.64
2023-03-29T03:33:45.734Z,92.26
2023-03-29T03:36:12.221Z,92.12
2023-03-29T03:38:38.707Z,92.11
2023-03-29T03:41:05.758Z,92.56
2023-03-29T03:43:32.600Z,92.98
2023-03-29T03:45:59.076Z,92.92
2023-03-29T03:48:25.807Z,92.98
2023-03-29T03:50:52.990Z,94.29
2023-03-29T03:53:19.668Z,93.81
2023-03-29T03:55:49.593Z,95.45
2023-03-29T03:58:16.338Z,95.06
2023-03-29T04:00:42.882Z,95.61
2023-03-29T04:03:09.675Z,95.60
2023-03-29T04:05:39.908Z,95.76
2023-03-29T04:08:06.452Z,96.13
2023-03-29T04:10:33.115Z,95.88
2023-03-29T04:12:59.943Z,95.71
2023-03-29T04:15:26.516Z,96.35
2023-03-29T04:17:53.238Z,96.25
2023-03-29T04:20:19.854Z,95.89
2023-03-29T04:22:46.333Z,95.88
2023-03-29T04:25:12.830Z,96.14
2023-03-29T04:27:39.470Z,96.29
2023-03-29T04:30:06.393Z,96.15
2023-03-29T04:32:33.440Z,96.10
2023-03-29T04:34:59.973Z,95.99
2023-03-29T04:37:26.425Z,94.61
2023-03-29T04:39:52.927Z,94.05
2023-03-29T04:42:19.446Z,94.94
2023-03-29T04:44:45.928Z,94.85
2023-03-29T04:47:12.515Z,94.26
2023-03-29T04:49:39.372Z,94.52
2023-03-29T04:52:05.848Z,94.81
2023-03-29T04:54:32.364Z,95.15
2023-03-29T04:56:58.840Z,95.03
2023-03-29T04:59:25.342Z,95.34
2023-03-29T05:01:52.211Z,95.92
2023-03-29T05:04:18.734Z,96.30
2023-03-29T05:06:45.300Z,96.62
2023-03-29T05:09:11.802Z,96.84
2023-03-29T05:11:38.209Z,96.78
2023-03-29T05:14:04.613Z,96.69
2023-03-29T05:16:31.178Z,96.90
2023-03-29T05:18:58.011Z,97.07
2023-03-29T05:21:24.504Z,96.67
2023-03-29T05:23:50.967Z,96.91
2023-03-29T05:26:17.434Z,96.76
2023-03-29T05:28:43.793Z,96.96
2023-03-29T05:31:10.286Z,96.77
2023-03-29T05:33:36.842Z,97.07
2023-03-29T05:36:07.377Z,97.17
2023-03-29T05:38:34.089Z,96.90
2023-03-29T05:41:00.952Z,97.41
2023-03-29T05:43:28.037Z,97.33
2023-03-29T05:45:54.769Z,97.01
2023-03-29T05:48:21.665Z,96.54
2023-03-29T05:50:49.258Z,96.98
2023-03-29T05:53:16.071Z,96.68
2023-03-29T05:55:42.555Z,96.80
2023-03-29T05:58:09.342Z,96.41
2023-03-29T06:00:36.129Z,96.42
2023-03-29T06:03:13.609Z,95.38
2023-03-29T06:05:45.869Z,96.11
2023-03-29T06:08:14.337Z,96.02
2023-03-29T06:10:41.146Z,94.82
2023-03-29T06:13:07.672Z,94.56
2023-03-29T06:15:34.264Z,95.14
2023-03-29T06:18:03.871Z,94.84
2023-03-29T06:20:31.565Z,95.44
2023-03-29T06:22:58.101Z,95.64
2023-03-29T06:25:24.658Z,95.58
2023-03-29T06:27:51.144Z,95.10
2023-03-29T06:30:17.635Z,95.45
2023-03-29T06:32:44.194Z,94.87
2023-03-29T06:35:10.862Z,95.36
2023-03-29T06:37:37.533Z,95.28
2023-03-29T06:40:04.423Z,94.59
2023-03-29T06:42:30.854Z,93.28
2023-03-29T06:44:57.338Z,92.84
2023-03-29T06:47:23.813Z,93.64
2023-03-29T06:49:50.265Z,93.58
2023-03-29T06:52:17.008Z,93.45
2023-03-29T06:54:43.483Z,93.64
2023-03-29T06:57:09.952Z,93.31
2023-03-29T06:59:36.512Z,93.18
2023-03-29T07:02:03.131Z,93.76
2023-03-29T07:04:29.801Z,93.42
2023-03-29T07:06:56.280Z,93.32
2023-03-29T07:09:22.840Z,93.21
2023-03-29T07:11:49.261Z,93.50
2023-03-29T07:14:15.810Z,93.40
2023-03-29T07:16:42.306Z,93.93
2023-03-29T07:19:08.814Z,93.62
2023-03-29T07:21:36.690Z,93.22
2023-03-29T07:24:04.452Z,93.82
2023-03-29T07:26:30.947Z,92.51
2023-03-29T07:28:57.520Z,91.96
2023-03-29T07:31:23.987Z,92.95
2023-03-29T07:33:50.402Z,93.65
2023-03-29T07:36:17.014Z,93.50
2023-03-29T07:38:43.519Z,93.80
2023-03-29T07:41:10.555Z,93.86
2023-03-29T07:43:37.186Z,92.55
2023-03-29T07:46:03.992Z,92.70
2023-03-29T07:48:30.812Z,92.52
2023-03-29T07:50:57.350Z,92.19
2023-03-29T07:53:23.938Z,91.75
2023-03-29T07:55:50.390Z,92.17
2023-03-29T07:58:16.742Z,91.93
2023-03-29T08:00:43.230Z,91.58
2023-03-29T08:03:12.722Z,90.94
2023-03-29T08:05:41.715Z,90.27
2023-03-29T08:08:08.905Z,91.08
2023-03-29T08:10:36.208Z,90.89
2023-03-29T08:13:04.173Z,89.69
2023-03-29T08:15:30.635Z,90.03
2023-03-29T08:17:57.133Z,90.61
2023-03-29T08:20:23.624Z,89.31
2023-03-29T08:22:50.199Z,87.66
2023-03-29T08:25:16.626Z,88.24
2023-03-29T08:27:43.015Z,87.07
2023-03-29T08:30:09.647Z,88.12
2023-03-29T08:32:36.717Z,89.17
2023-03-29T08:35:07.946Z,89.03
2023-03-29T08:37:34.396Z,87.46
2023-03-29T08:40:01.027Z,87.42
2023-03-29T08:42:33.453Z,86.76
2023-03-29T08:45:06.088Z,86.95
2023-03-29T08:47:50.836Z,87.14
2023-03-29T08:50:17.482Z,85.83
2023-03-29T08:52:49.030Z,86.59
2023-03-29T08:55:19.544Z,85.59
2023-03-29T08:57:46.626Z,84.62
2023-03-29T09:00:25.851Z,82.93
2023-03-29T09:02:52.377Z,84.33
2023-03-29T09:05:18.835Z,84.33
2023-03-29T09:07:45.457Z,83.66
2023-03-29T09:10:13.450Z,83.05
2023-03-29T09:12:50.453Z,81.16
2023-03-29T09:15:24.260Z,83.18
2023-03-29T09:17:53.504Z,80.97
2023-03-29T09:20:35.233Z,82.71
2023-03-29T09:23:05.121Z,83.68
2023-03-29T09:25:52.541Z,81.83
2023-03-29T09:28:21.571Z,80.04
2023-03-29T09:30:51.334Z,79.26
2023-03-29T09:33:40.162Z,79.76
2023-03-29T09:36:06.865Z,79.98
2023-03-29T09:38:33.658Z,80.08
2023-03-29T09:41:02.854Z,79.91
2023-03-29T09:43:33.435Z,79.65
2023-03-29T09:46:01.391Z,80.96
2023-03-29T09:48:27.914Z,80.86
2023-03-29T09:50:54.316Z,79.95
2023-03-29T09:53:20.788Z,79.28
2023-03-29T09:55:50.244Z,79.10
2023-03-29T09:58:19.956Z,78.21
2023-03-29T10:00:46.514Z,77.96
2023-03-29T10:03:19.685Z,76.13
2023-03-29T10:05:46.226Z,76.39
2023-03-29T10:08:16.114Z,76.12
2023-03-29T10:10:43.627Z,74.88
2023-03-29T10:13:13.323Z,70.30
2023-03-29T10:15:39.814Z,65.34
2023-03-29T10:18:07.186Z,62.71
2023-03-29T10:20:36.901Z,64.71
2023-03-29T10:23:05.029Z,66.39
2023-03-29T10:25:31.854Z,69.36
2023-03-29T10:28:08.214Z,70.36
2023-03-29T10:30:36.743Z,70.73
2023-03-29T10:33:03.342Z,69.18
2023-03-29T10:35:30.840Z,71.17
2023-03-29T10:37:57.791Z,71.42
2023-03-29T10:40:30.860Z,71.89
2023-03-29T10:43:00.936Z,72.33
2023-03-29T10:45:28.462Z,72.50
2023-03-29T10:47:55.459Z,71.65
2023-03-29T10:50:22.029Z,72.09
2023-03-29T10:52:48.546Z,71.35
2023-03-29T10:55:15.052Z,72.29
2023-03-29T10:57:41.660Z,72.70
2023-03-29T11:00:28.315Z,74.61
2023-03-29T11:03:04.852Z,74.73
2023-03-29T11:05:40.450Z,72.92
2023-03-29T11:08:25.149Z,73.42
2023-03-29T11:11:00.766Z,72.55
2023-03-29T11:13:46.411Z,72.37
2023-03-29T11:16:17.027Z,72.34
2023-03-29T11:18:55.652Z,73.14
2023-03-29T11:21:36.327Z,73.97
2023-03-29T11:24:21.836Z,74.39
2023-03-29T11:27:08.184Z,75.99
2023-03-29T11:29:46.725Z,76.56
2023-03-29T11:32:19.746Z,76.31
2023-03-29T11:35:05.199Z,76.32
2023-03-29T11:37:43.206Z,75.52
2023-03-29T11:40:28.347Z,75.46
2023-03-29T11:42:55.232Z,75.13
2023-03-29T11:45:27.417Z,76.10
2023-03-29T11:47:53.946Z,76.43
2023-03-29T11:50:24.577Z,75.58
2023-03-29T11:52:51.016Z,75.68
2023-03-29T11:55:21.880Z,74.66
2023-03-29T11:57:51.509Z,73.67
2023-03-29T12:00:18.943Z,74.72
2023-03-29T12:02:46.433Z,71.29
2023-03-29T12:05:23.262Z,73.29
2023-03-29T12:07:59.020Z,72.70
2023-03-29T12:10:30.859Z,74.25
2023-03-29T12:13:00.979Z,72.77
2023-03-29T12:15:28.557Z,75.27
2023-03-29T12:18:01.010Z,74.03
2023-03-29T12:20:28.746Z,72.71
2023-03-29T12:22:55.222Z,73.08
2023-03-29T12:25:31.636Z,74.13
2023-03-29T12:28:12.254Z,73.69
2023-03-29T12:30:47.030Z,74.79
2023-03-29T12:33:15.775Z,72.20
2023-03-29T12:35:49.016Z,74.07
2023-03-29T12:38:21.801Z,74.71
2023-03-29T12:40:48.920Z,73.97
2023-03-29T12:43:16.805Z,73.16
2023-03-29T12:45:43.981Z,72.69
2023-03-29T12:48:14.986Z,71.88
2023-03-29T12:50:46.157Z,72.45
2023-03-29T12:53:12.539Z,71.28
2023-03-29T12:55:41.683Z,72.44
2023-03-29T12:58:20.905Z,72.39
2023-03-29T13:00:47.386Z,74.02
2023-03-29T13:03:32.677Z,71.97
2023-03-29T13:06:02.714Z,71.36
2023-03-29T13:08:36.724Z,72.63
2023-03-29T13:11:03.816Z,70.59
2023-03-29T13:13:33.870Z,69.79
2023-03-29T13:16:13.857Z,72.02
2023-03-29T13:18:44.271Z,71.37
2023-03-29T13:21:13.680Z,69.80
2023-03-29T13:23:59.091Z,71.75
2023-03-29T13:26:25.661Z,70.81
2023-03-29T13:28:52.141Z,72.14
2023-03-29T13:31:31.023Z,72.45
2023-03-29T13:34:00.888Z,71.41
2023-03-29T13:36:27.247Z,70.90
2023-03-29T13:38:53.834Z,71.40
2023-03-29T13:41:38.639Z,70.67
2023-03-29T13:44:16.670Z,70.31
2023-03-29T13:46:43.479Z,69.45
2023-03-29T13:49:14.876Z,70.34
2023-03-29T13:51:42.150Z,71.79
2023-03-29T13:54:27.464Z,70.57
2023-03-29T13:56:58.943Z,71.36
2023-03-29T13:59:30.897Z,71.62
2023-03-29T14:01:57.927Z,71.02
2023-03-29T14:04:25.444Z,70.48
2023-03-29T14:06:52.865Z,70.08
2023-03-29T14:09:19.931Z,71.77
2023-03-29T14:11:46.510Z,70.97
2023-03-29T14:14:13.076Z,70.96
2023-03-29T14:16:39.935Z,71.32
2023-03-29T14:19:07.650Z,71.06
2023-03-29T14:21:34.069Z,71.06
2023-03-29T14:24:01.146Z,72.47
2023-03-29T14:26:31.298Z,73.27
2023-03-29T14:28:58.559Z,73.07
2023-03-29T14:31:25.805Z,74.43
2023-03-29T14:33:52.670Z,72.48
2023-03-29T14:36:19.207Z,72.52
2023-03-29T14:38:47.607Z,71.34
2023-03-29T14:41:14.029Z,72.91
2023-03-29T14:43:40.459Z,72.57
2023-03-29T14:46:07.063Z,73.53
2023-03-29T14:48:33.613Z,72.78
2023-03-29T14:51:00.138Z,74.62
2023-03-29T14:53:26.712Z,75.07
2023-03-29T14:55:54.370Z,74.80
2023-03-29T14:58:20.754Z,72.44
2023-03-29T15:00:48.105Z,72.61
2023-03-29T15:03:14.889Z,72.83
2023-03-29T15:05:41.926Z,73.46
2023-03-29T15:08:10.180Z,73.83
2023-03-29T15:10:36.745Z,73.45
2023-03-29T15:13:04.324Z,72.37
2023-03-29T15:15:31.793Z,72.68
2023-03-29T15:17:58.278Z,72.94
2023-03-29T15:20:25.546Z,72.97
2023-03-29T15:23:01.834Z,74.07
2023-03-29T15:25:32.492Z,73.45
2023-03-29T15:28:00.993Z,73.43
2023-03-29T15:30:35.081Z,73.69
2023-03-29T15:33:14.696Z,73.85
2023-03-29T15:35:41.403Z,73.44
2023-03-29T15:38:10.442Z,73.76
2023-03-29T15:40:37.099Z,74.55
2023-03-29T15:43:03.771Z,74.81
2023-03-29T15:45:30.225Z,75.29
2023-03-29T15:47:56.702Z,74.52
2023-03-29T15:50:23.213Z,74.00
2023-03-29T15:52:49.592Z,74.77
2023-03-29T15:55:16.265Z,74.51
2023-03-29T15:57:42.913Z,75.69
2023-03-29T16:00:10.319Z,75.97
2023-03-29T16:02:37.068Z,75.46
2023-03-29T16:05:03.702Z,75.47
2023-03-29T16:07:30.143Z,75.31
2023-03-29T16:09:56.553Z,75.73
2023-03-29T16:12:22.973Z,76.26
2023-03-29T16:14:49.510Z,74.93
2023-03-29T16:17:16.074Z,76.31
2023-03-29T16:19:42.659Z,76.03
2023-03-29T16:22:09.110Z,76.58
2023-03-29T16:24:35.568Z,76.09
2023-03-29T16:27:02.411Z,77.05
2023-03-29T16:29:28.816Z,77.16
2023-03-29T16:31:55.758Z,77.26
2023-03-29T16:34:22.280Z,77.15
2023-03-29T16:36:48.800Z,76.77
2023-03-29T16:39:15.346Z,77.26
2023-03-29T16:41:42.103Z,76.18
2023-03-29T16:44:10.796Z,77.59
2023-03-29T16:46:37.369Z,78.28
2023-03-29T16:49:04.087Z,77.64
2023-03-29T16:51:30.478Z,77.77
2023-03-29T16:53:56.843Z,77.48
2023-03-29T16:56:23.392Z,78.32
2023-03-29T16:58:49.881Z,78.95
2023-03-29T17:01:16.459Z,79.99
2023-03-29T17:03:43.118Z,78.16
2023-03-29T17:06:09.902Z,78.82
2023-03-29T17:08:36.706Z,79.29
2023-03-29T17:11:04.342Z,79.55
2023-03-29T17:13:30.869Z,80.68
2023-03-29T17:15:57.414Z,80.97
2023-03-29T17:18:24.476Z,81.88
2023-03-29T17:20:51.131Z,81.23
2023-03-29T17:23:17.680Z,82.32
2023-03-29T17:25:44.180Z,82.11
2023-03-29T17:28:10.772Z,81.76
2023-03-29T17:30:37.503Z,81.70
2023-03-29T17:33:04.045Z,82.69
2023-03-29T17:35:30.616Z,82.61
2023-03-29T17:37:57.076Z,83.90
2023-03-29T17:40:23.505Z,83.93
2023-03-29T17:42:51.770Z,84.66
2023-03-29T17:45:18.421Z,84.27
2023-03-29T17:47:44.939Z,85.56
2023-03-29T17:50:11.810Z,84.58
2023-03-29T17:52:38.380Z,85.24
2023-03-29T17:55:05.572Z,84.85
2023-03-29T17:57:32.036Z,85.33
2023-03-29T17:59:58.440Z,85.69
2023-03-29T18:02:25.000Z,85.89
2023-03-29T18:04:51.560Z,85.56
2023-03-29T18:07:18.521Z,86.73
2023-03-29T18:09:45.039Z,86.79
2023-03-29T18:12:11.444Z,87.65
2023-03-29T18:14:37.991Z,87.31
2023-03-29T18:17:04.590Z,86.42
2023-03-29T18:19:31.131Z,87.02
2023-03-29T18:21:57.532Z,87.99
2023-03-29T18:24:24.032Z,87.25
2023-03-29T18:26:50.833Z,88.09
2023-03-29T18:29:17.228Z,88.48
2023-03-29T18:31:43.754Z,88.63
2023-03-29T18:34:10.368Z,88.69
2023-03-29T18:36:36.927Z,86.83
2023-03-29T18:39:03.594Z,87.66
2023-03-29T18:41:30.108Z,89.01
2023-03-29T18:43:56.558Z,89.38
2023-03-29T18:46:23.347Z,91.38
2023-03-29T18:48:49.828Z,91.53
2023-03-29T18:51:16.262Z,91.23
2023-03-29T18:53:42.754Z,90.58
2023-03-29T18:56:09.226Z,89.86
2023-03-29T18:58:35.900Z,89.87
2023-03-29T19:01:02.512Z,91.72
2023-03-29T19:03:29.086Z,91.11
2023-03-29T19:05:55.548Z,90.94
2023-03-29T19:08:22.480Z,90.73
2023-03-29T19:10:48.854Z,92.33
2023-03-29T19:13:15.307Z,92.80
2023-03-29T19:15:41.925Z,92.12
2023-03-29T19:18:08.389Z,91.26
2023-03-29T19:20:35.056Z,91.78
2023-03-29T19:23:01.749Z,92.70
2023-03-29T19:25:28.520Z,93.01
2023-03-29T19:27:54.951Z,92.63
2023-03-29T19:30:21.399Z,93.14
2023-03-29T19:32:47.838Z,93.99
2023-03-29T19:35:14.371Z,94.66
2023-03-29T19:37:40.915Z,94.62
2023-03-29T19:40:07.791Z,95.34
2023-03-29T19:42:34.355Z,96.00
2023-03-29T19:45:00.900Z,96.03
2023-03-29T19:47:27.288Z,96.55
2023-03-29T19:49:53.704Z,97.64
2023-03-29T19:52:20.403Z,99.14
2023-03-29T19:54:47.134Z,99.05
2023-03-29T19:57:13.607Z,99.41
2023-03-29T19:59:40.142Z,98.50
2023-03-29T20:02:06.649Z,99.33
2023-03-29T20:04:33.368Z,98.79
2023-03-29T20:07:00.093Z,100.00
2023-03-29T20:09:26.554Z,99.12
2023-03-29T20:11:53.023Z,100.00
2023-03-29T20:14:19.614Z,100.00
2023-03-29T20:16:46.520Z,99.12
2023-03-29T20:19:13.017Z,98.01
2023-03-29T20:21:39.617Z,98.11
2023-03-29T20:24:06.168Z,97.70
2023-03-29T20:26:32.646Z,97.97
2023-03-29T20:28:59.229Z,96.69
2023-03-29T20:31:25.716Z,96.83
2023-03-29T20:33:52.140Z,97.66
2023-03-29T20:36:18.766Z,97.47
2023-03-29T20:38:45.323Z,98.21
2023-03-29T20:41:11.733Z,98.72
2023-03-29T20:43:38.236Z,98.84
2023-03-29T20:46:05.049Z,99.50
2023-03-29T20:48:31.538Z,98.93
2023-03-29T20:50:58.002Z,99.50
2023-03-29T20:53:24.389Z,98.26
2023-03-29T20:55:50.787Z,98.85
2023-03-29T20:58:17.219Z,98.73
2023-03-29T21:00:43.789Z,98.62
2023-03-29T21:03:10.376Z,97.99
2023-03-29T21:05:37.038Z,97.28
2023-03-29T21:08:03.458Z,98.49
2023-03-29T21:10:29.833Z,98.65
2023-03-29T21:12:56.243Z,97.93
2023-03-29T21:15:22.787Z,98.92
2023-03-29T21:17:49.265Z,98.54
2023-03-29T21:20:15.884Z,97.10
2023-03-29T21:22:42.417Z,97.04
2023-03-29T21:25:09.300Z,98.49
2023-03-29T21:27:35.938Z,98.02
2023-03-29T21:30:03.104Z,98.90
2023-03-29T21:32:29.924Z,98.43
2023-03-29T21:34:56.495Z,97.11
2023-03-29T21:37:23.048Z,97.79
2023-03-29T21:39:49.485Z,97.42
2023-03-29T21:42:16.084Z,97.52
2023-03-29T21:44:42.571Z,97.97
2023-03-29T21:47:09.044Z,98.78
2023-03-29T21:49:35.553Z,98.81
2023-03-29T21:52:01.968Z,99.18
2023-03-29T21:54:28.376Z,99.63
2023-03-29T21:56:54.963Z,98.96
2023-03-29T21:59:21.332Z,97.99
2023-03-29T22:01:47.936Z,98.79
2023-03-29T22:04:22.604Z,99.18
2023-03-29T22:06:55.824Z,99.68
2023-03-29T22:09:22.274Z,100.00
2023-03-29T22:11:48.668Z,100.00
2023-03-29T22:14:15.124Z,100.00
2023-03-29T22:16:41.754Z,99.92
2023-03-29T22:19:08.287Z,100.00
2023-03-29T22:21:34.637Z,99.71
2023-03-29T22:24:01.098Z,99.96
2023-03-29T22:26:29.057Z,100.00
2023-03-29T22:28:55.508Z,99.84
2023-03-29T22:31:22.298Z,100.00
2023-03-29T22:33:48.963Z,99.25
2023-03-29T22:36:19.812Z,98.53
2023-03-29T22:38:46.562Z,99.05
2023-03-29T22:41:13.059Z,99.56
2023-03-29T22:43:39.449Z,99.21
2023-03-29T22:46:06.286Z,99.10
2023-03-29T22:48:32.798Z,99.59
2023-03-29T22:50:59.615Z,100.00
2023-03-29T22:53:26.207Z,100.00
2023-03-29T22:55:52.995Z,99.47
2023-03-29T22:58:19.510Z,100.00
2023-03-29T23:00:45.975Z,98.81
2023-03-29T23:03:12.380Z,98.73
2023-03-29T23:05:38.748Z,99.37
2023-03-29T23:08:05.249Z,99.44
2023-03-29T23:10:31.650Z,99.76
2023-03-29T23:12:58.134Z,98.95
2023-03-29T23:15:24.597Z,99.59
2023-03-29T23:17:50.976Z,98.96
2023-03-29T23:20:17.411Z,99.16
2023-03-29T23:22:43.951Z,98.71
2023-03-29T23:25:10.396Z,99.63
2023-03-29T23:27:36.811Z,99.03
2023-03-29T23:30:03.333Z,98.67
2023-03-29T23:32:29.758Z,99.52
2023-03-29T23:34:56.232Z,99.31
2023-03-29T23:37:22.719Z,99.59
2023-03-29T23:39:49.197Z,99.98
2023-03-29T23:42:15.652Z,100.00
2023-03-29T23:44:42.099Z,99.81
2023-03-29T23:47:08.782Z,100.00
2023-03-29T23:49:35.409Z,100.00
2023-03-29T23:52:02.153Z,100.00
2023-03-29T23:54:28.654Z,100.00
2023-03-29T23:56:55.077Z,100.00
2023-03-29T23:59:21.682Z,100.00
